Skip Navigation Links
NOAA logo - Click to go to the NOAA homepage
NOAA's National Weather Service
Alaska Aviation Weather Unit
  NWS logo - Click to go to the NWS homepage
Left Navbar Graphic     08 AKDT = 16 GMT

   
NOAA is celebrating 200 years of science, service, and stewardship. Visit the NOAA 200th celebration Web site to learn more.
USA.gov is the U.S. Government's official Web portal to all Federal, state and local government Web resources and services.
Facebook
NWS on Facebook

Important Change Regarding the AAWU Web Presence

 

Over the last several months, the AAWU has been working to navigate its webpages to a nationally supported server. Security, as well as other needs, have necessitated the change.  In the process, we have made an effort to enhance the functionality of our website, as well as some of our products. As of June 20, 2017, aawu.arh.noaa.gov will be discontinued. The new AAWU web address is weather.gov/aawu. It is now live and will run in-parallel with the old site until it is discontinued. Please send any feedback or questions regarding the new webpages to nws.ar.aawu.webauthors@noaa.gov.  Thank you for your patience during this time of transition.
AAWU Home :: Display TAF Add Bookmark
METAR PAKP 231016Z AUTO 01007KT 10SM SCT070 M01/M05 A2970 RMK AO1=

METAR PAKP 231036Z AUTO 02007KT 10SM FEW070 M01/M05 A2970 RMK AO1=

METAR PAKP 231056Z AUTO 36007KT 10SM SCT110 M01/M05 A2970 RMK AO1=

METAR PAKP 231116Z AUTO 03008KT 10SM SCT100 M01/M04 A2970 RMK AO1=

METAR PAKP 231136Z AUTO 02007KT 10SM FEW100 M02/M05 A2970 RMK AO1=

METAR PAKP 231156Z AUTO 03005KT 10SM SCT080 SCT085 M02/M05 A2970 RMK AO1
     10030 21020 52003=

METAR PAKP 231216Z AUTO 02006KT 10SM FEW080 M02/M05 A2970 RMK AO1=

METAR PAKP 231236Z AUTO 03007KT 10SM CLR M01/M05 A2970 RMK AO1=

METAR PAKP 231316Z AUTO 03007KT 10SM FEW095 M01/M05 A2970 RMK AO1=

METAR PAKP 231336Z AUTO 03006KT 10SM SCT080 BKN095 M01/M04 A2970 RMK
     AO1=

METAR PAKP 231356Z AUTO 03005KT 10SM FEW080 SCT095 00/M04 A2970 RMK
     AO1=

METAR PAKP 231416Z AUTO 03006KT 10SM CLR 00/M04 A2970 RMK AO1=

METAR PAKP 231436Z AUTO 03006KT 10SM FEW080 M01/M04 A2970 RMK AO1=

METAR PAKP 231456Z AUTO 03006KT 10SM BKN080 00/M04 A2970 RMK AO1
     54000=

METAR PAKP 231516Z AUTO 02006KT 10SM BKN080 01/M04 A2970 RMK AO1=

METAR PAKP 231536Z AUTO 02005KT 10SM BKN080 01/M04 A2970 RMK AO1=

METAR PAKP 231556Z AUTO 03005KT 10SM BKN070 OVC080 02/M03 A2970 RMK
     AO1=

METAR PAKP 231616Z AUTO 33004KT 10SM FEW048 BKN060 OVC080 02/M03 A2971
     RMK AO1=

METAR PAKP 231636Z AUTO 21004KT 5SM FEW038 BKN047 OVC060 02/M04
 A2972 RMK AO1=


NOAA's National Weather Service
Alaska Aviation Weather Unit
6930 Sand Lake Road
Anchorage, AK 99502-1845
Disclaimer
Credits
Glossary
Privacy Policy
About Us
Career Opportunities
Contact AAWU Internet Services Site last modified: April, 17th 2012